M I D A S
Marine Information and Data Acquisition System
Tripno 1665 of the Zeeleeuw from 2009-03-26 07:33:00 to 2009-03-26 15:56:00
Back to CruiseResearch ActivitiesStationsMapUnderway DataData graphs

EquipmentUnitsComment
TimeDGPSUTC
LatitudeDGPSDM.mWGS84
LongitudeDGPSDM.mWGS84
HeadingGyrodeg 
SOGDGPSknotsSpeed over ground
COGDGPSdegCourse over ground
DepthEcho soundermeters200 kHz
Missing or incorrect values are displayed as -999
Navigation data collected by the RV Zeeleeuw from 2009-03-26 07:33:22 to 2009-03-26 15:56:01
                                                                                    Next 1000 lines
Time Latitude Longitude Heading SOG COG Depth
2009-03-26 07:33:32 51°13.664 2°55.953 112.6 1.6 294 4.6
2009-03-26 07:33:37 51°13.665 2°55.949 112.7 2.3 298 -999
2009-03-26 07:33:42 51°13.667 2°55.944 113 2.6 295 4.5
2009-03-26 07:33:47 51°13.668 2°55.938 113.1 2.7 296 -999
2009-03-26 07:33:52 51°13.67 2°55.933 113.2 2.7 296 -999
2009-03-26 07:33:57 51°13.672 2°55.928 113.3 2.8 298 -999
2009-03-26 07:34:02 51°13.674 2°55.922 113.3 2.8 298 -999
2009-03-26 07:34:07 51°13.676 2°55.916 112.9 2.9 297 -999
2009-03-26 07:34:12 51°13.678 2°55.911 112.6 3 298 -999
2009-03-26 07:34:17 51°13.679 2°55.905 112.2 3 295 -999
2009-03-26 07:34:22 51°13.681 2°55.898 111.2 3.2 295 -999
2009-03-26 07:34:27 51°13.683 2°55.892 110 3.2 292 -999
2009-03-26 07:34:32 51°13.684 2°55.885 108.6 3.3 291 -999
2009-03-26 07:34:37 51°13.686 2°55.878 107.5 3.3 291 -999
2009-03-26 07:34:42 51°13.688 2°55.871 106.4 3.2 291 -999
2009-03-26 07:34:47 51°13.689 2°55.865 105.4 3.3 289 -999
2009-03-26 07:34:52 51°13.691 2°55.858 104.3 3.2 288 6
2009-03-26 07:34:57 51°13.692 2°55.851 102.5 3.2 287 -999
2009-03-26 07:35:02 51°13.693 2°55.844 101 3.2 285 6.6
2009-03-26 07:35:07 51°13.694 2°55.837 99 3.2 284 -999
2009-03-26 07:35:12 51°13.695 2°55.83 97.3 3.1 283 -999
2009-03-26 07:35:17 51°13.696 2°55.823 95 3.1 280 -999
2009-03-26 07:35:22 51°13.696 2°55.817 93 3 280 -999
2009-03-26 07:35:27 51°13.697 2°55.81 90.5 2.9 278 -999
2009-03-26 07:35:32 51°13.698 2°55.804 88.5 2.8 276 -999
2009-03-26 07:35:37 51°13.698 2°55.798 86.4 2.7 274 -999
2009-03-26 07:35:42 51°13.698 2°55.792 84.4 2.7 272 -999
2009-03-26 07:35:47 51°13.698 2°55.786 82.8 2.6 272 8.9
2009-03-26 07:35:52 51°13.698 2°55.781 81.2 2.5 270 9.5
2009-03-26 07:35:57 51°13.698 2°55.776 79.5 2.3 268 9.7
2009-03-26 07:36:02 51°13.698 2°55.771 77.5 2.1 268 9.9
2009-03-26 07:36:06 51°13.698 2°55.768 76.1 1.5 269 10.3
2009-03-26 07:36:11 51°13.698 2°55.766 73.5 1 278 10.7
2009-03-26 07:36:17 51°13.698 2°55.765 70 0.6 297 -999
2009-03-26 07:36:22 51°13.699 2°55.764 63.2 0.5 329 -999
2009-03-26 07:36:27 51°13.7 2°55.764 58.9 0.5 337 10.9
2009-03-26 07:36:32 51°13.7 2°55.763 54.2 0.5 344 -999
2009-03-26 07:36:37 51°13.701 2°55.763 49.5 0.5 346 -999
2009-03-26 07:36:42 51°13.702 2°55.763 45.4 0.6 351 11.1
2009-03-26 07:36:47 51°13.703 2°55.763 42.8 0.6 354 -999
2009-03-26 07:36:52 51°13.704 2°55.762 39.6 0.6 352 -999
2009-03-26 07:36:57 51°13.705 2°55.762 36 0.6 350 -999
2009-03-26 07:37:02 51°13.705 2°55.762 33.7 0.5 337 -999
2009-03-26 07:37:07 51°13.706 2°55.761 31.7 0.4 314 -999
2009-03-26 07:37:12 51°13.706 2°55.76 29.4 0.5 285 -999
2009-03-26 07:37:17 51°13.706 2°55.759 27 0.5 268 -999
2009-03-26 07:37:22 51°13.706 2°55.758 24.8 0.6 252 -999
2009-03-26 07:37:27 51°13.705 2°55.757 22.4 0.6 244 -999
2009-03-26 07:37:32 51°13.705 2°55.755 20.5 0.7 229 -999
2009-03-26 07:37:37 51°13.704 2°55.754 17.7 0.7 229 -999
2009-03-26 07:37:42 51°13.704 2°55.753 15.5 0.6 226 -999
2009-03-26 07:37:47 51°13.703 2°55.752 14.1 0.6 232 10.7
2009-03-26 07:37:51 51°13.703 2°55.751 12.8 0.4 264 10.6
2009-03-26 07:37:57 51°13.703 2°55.751 11.6 0.4 320 10.6
2009-03-26 07:38:01 51°13.704 2°55.75 9.5 0.7 331 10.7
2009-03-26 07:38:06 51°13.705 2°55.75 5.6 0.9 342 10.6
2009-03-26 07:38:11 51°13.706 2°55.749 1.5 1.1 334 10.6
2009-03-26 07:38:15 51°13.708 2°55.748 356.7 1.3 338 -999
2009-03-26 07:38:21 51°13.71 2°55.746 350.7 1.6 332 10.6
2009-03-26 07:38:26 51°13.712 2°55.744 344.9 1.9 331 10.4
2009-03-26 07:38:31 51°13.715 2°55.741 339.2 2.7 327 -999
2009-03-26 07:38:36 51°13.719 2°55.737 334 3.4 328 -999
2009-03-26 07:38:42 51°13.724 2°55.731 330.2 4.2 326 10.1
2009-03-26 07:38:47 51°13.73 2°55.726 329.1 4.6 328 -999
2009-03-26 07:38:52 51°13.736 2°55.719 329.6 5.1 328 10
2009-03-26 07:38:57 51°13.742 2°55.713 330.2 5.6 329 10
2009-03-26 07:39:02 51°13.749 2°55.706 330.6 5.9 328 10
2009-03-26 07:39:06 51°13.755 2°55.7 330.7 6.3 328 9.4
2009-03-26 07:39:11 51°13.763 2°55.693 330.7 6.5 328 9.1
2009-03-26 07:39:16 51°13.771 2°55.685 330.6 6.7 329 9
2009-03-26 07:39:21 51°13.779 2°55.677 330.9 6.9 329 9
2009-03-26 07:39:26 51°13.788 2°55.67 331.9 7.1 331 9
2009-03-26 07:39:30 51°13.795 2°55.663 332.8 7.3 331 9
2009-03-26 07:39:35 51°13.804 2°55.656 333.3 7.4 332 9
2009-03-26 07:39:40 51°13.813 2°55.648 333.8 7.5 333 9
2009-03-26 07:39:44 51°13.821 2°55.643 334.7 7.6 335 8.9
2009-03-26 07:39:50 51°13.833 2°55.634 335.8 7.7 334 8.8
2009-03-26 07:39:54 51°13.84 2°55.628 336.1 7.8 335 8.9
2009-03-26 07:39:59 51°13.85 2°55.62 335.7 7.8 333 8.9
2009-03-26 07:40:03 51°13.858 2°55.614 335 7.9 334 9.2
2009-03-26 07:40:08 51°13.868 2°55.606 335.1 8.1 334 9.4
2009-03-26 07:40:14 51°13.88 2°55.597 335.7 8.2 334 9.3
2009-03-26 07:40:18 51°13.889 2°55.591 335.9 8.3 334 9.5
2009-03-26 07:40:23 51°13.899 2°55.582 335.5 8.4 334 9.4
2009-03-26 07:40:28 51°13.91 2°55.574 335.7 8.5 335 9.5
2009-03-26 07:40:34 51°13.923 2°55.564 335.8 8.6 334 9.4
2009-03-26 07:40:38 51°13.931 2°55.558 336.4 8.7 336 9.4
2009-03-26 07:40:43 51°13.942 2°55.55 337.6 8.7 336 9.4
2009-03-26 07:40:49 51°13.956 2°55.541 337.9 8.8 336 9.4
2009-03-26 07:40:53 51°13.965 2°55.535 337.5 8.8 335 9.5
2009-03-26 07:40:58 51°13.976 2°55.527 337 8.8 336 9.4
2009-03-26 07:41:03 51°13.987 2°55.518 337.2 8.8 336 9.4
2009-03-26 07:41:09 51°14 2°55.508 337 8.9 334 9.4
2009-03-26 07:41:13 51°14.009 2°55.502 336.6 8.9 335 9.4
2009-03-26 07:41:18 51°14.02 2°55.494 336.9 8.9 335 9.4
2009-03-26 07:41:22 51°14.029 2°55.487 336.9 8.9 335 9.5
2009-03-26 07:41:28 51°14.043 2°55.477 336.6 8.9 335 9.4
2009-03-26 07:41:34 51°14.056 2°55.467 337.1 8.9 336 -999
2009-03-26 07:41:39 51°14.068 2°55.459 337.5 9 335 9.5
2009-03-26 07:41:44 51°14.079 2°55.451 336.9 9 335 -999
2009-03-26 07:41:50 51°14.093 2°55.441 336.7 9 335 9.5
2009-03-26 07:41:54 51°14.102 2°55.434 336.8 9 334 9.5
2009-03-26 07:41:59 51°14.113 2°55.425 336.3 9 334 9.5
2009-03-26 07:42:04 51°14.124 2°55.416 335.8 9 333 -999
2009-03-26 07:42:09 51°14.135 2°55.407 335.3 9 333 9.6
2009-03-26 07:42:15 51°14.148 2°55.396 334.7 9 332 -999
2009-03-26 07:42:20 51°14.159 2°55.387 333.9 8.9 331 9.8
2009-03-26 07:42:25 51°14.17 2°55.377 332.9 8.9 329 10.1
2009-03-26 07:42:30 51°14.18 2°55.366 331.2 8.9 327 -999
2009-03-26 07:42:35 51°14.19 2°55.355 329.5 8.9 326 9.6
2009-03-26 07:42:41 51°14.202 2°55.341 327.8 8.9 324 9.6
2009-03-26 07:42:46 51°14.212 2°55.33 326.6 8.9 324 9.6
2009-03-26 07:42:51 51°14.222 2°55.318 326 8.9 323 9.6
2009-03-26 07:42:56 51°14.232 2°55.306 324.8 8.9 321 -999
2009-03-26 07:43:01 51°14.241 2°55.293 322.9 8.9 319 9.9
2009-03-26 07:43:06 51°14.25 2°55.28 321.5 8.8 318 9.7
2009-03-26 07:43:10 51°14.258 2°55.269 320.2 8.9 317 9.6
2009-03-26 07:43:15 51°14.267 2°55.256 319.1 8.9 316 9.8
2009-03-26 07:43:20 51°14.275 2°55.242 317.5 8.9 314 9.7
2009-03-26 07:43:25 51°14.284 2°55.227 315.7 8.9 314 9.9
2009-03-26 07:43:30 51°14.292 2°55.213 314.6 9 313 9.6
2009-03-26 07:43:34 51°14.299 2°55.201 314.4 9 314 9.9
2009-03-26 07:43:39 51°14.307 2°55.187 314.7 9 313 10
2009-03-26 07:43:44 51°14.316 2°55.173 314.8 9 314 9.9
2009-03-26 07:43:49 51°14.325 2°55.158 314.1 9 313 10.1
2009-03-26 07:43:54 51°14.333 2°55.144 313.8 9 314 10
2009-03-26 07:43:58 51°14.34 2°55.132 313.9 9 313 10.1
2009-03-26 07:44:03 51°14.348 2°55.117 313.3 9 311 9.9
2009-03-26 07:44:09 51°14.358 2°55.099 312 9 310 9.9
2009-03-26 07:44:14 51°14.366 2°55.083 310.2 9.1 308 9.8
2009-03-26 07:44:18 51°14.372 2°55.071 309.5 9 309 9.9
2009-03-26 07:44:23 51°14.38 2°55.055 310.1 9.1 309 9.7
2009-03-26 07:44:28 51°14.388 2°55.039 310.5 9.1 308 9.6
2009-03-26 07:44:34 51°14.397 2°55.02 310.2 9.2 306 9.5
2009-03-26 07:44:38 51°14.403 2°55.007 309 9.2 305 9.2
2009-03-26 07:44:42 51°14.409 2°54.993 308.2 9.3 305 9.2
2009-03-26 07:44:49 51°14.42 2°54.97 309.3 9.3 307 9.2
2009-03-26 07:44:54 51°14.428 2°54.954 311.6 9.3 310 9.3
2009-03-26 07:44:58 51°14.435 2°54.942 314.5 9.4 313 9.4
2009-03-26 07:45:03 51°14.444 2°54.927 317.8 9.4 315 9.4
2009-03-26 07:45:08 51°14.454 2°54.913 320.2 9.4 316 9.4
2009-03-26 07:45:14 51°14.465 2°54.895 321.1 9.6 315 9.4
2009-03-26 07:45:18 51°14.472 2°54.883 320.9 9.6 315 9.4
2009-03-26 07:45:23 51°14.482 2°54.868 321 9.7 315 9.4
2009-03-26 07:45:28 51°14.492 2°54.853 321.1 9.7 314 9.2
2009-03-26 07:45:33 51°14.501 2°54.837 319.4 9.9 312 9.2
2009-03-26 07:45:38 51°14.51 2°54.821 318.4 9.9 312 9.1
2009-03-26 07:45:43 51°14.519 2°54.804 317.7 9.9 311 9.3
2009-03-26 07:45:49 51°14.53 2°54.784 316.8 10 311 9.1
2009-03-26 07:45:54 51°14.539 2°54.767 316.3 10.1 310 9.1
2009-03-26 07:45:58 51°14.546 2°54.753 315.8 10.2 310 9
2009-03-26 07:46:03 51°14.555 2°54.736 315.3 10.2 310 8.9
2009-03-26 07:46:08 51°14.564 2°54.718 315.3 10.3 310 8.9
2009-03-26 07:46:14 51°14.575 2°54.697 315.2 10.3 309 8.9
2009-03-26 07:46:18 51°14.582 2°54.683 315.1 10.4 310 8.8
2009-03-26 07:46:23 51°14.592 2°54.665 314.9 10.5 309 8.8
2009-03-26 07:46:29 51°14.603 2°54.643 314.8 10.6 309 8.8
2009-03-26 07:46:34 51°14.612 2°54.625 314.7 10.6 309 8.8
2009-03-26 07:46:38 51°14.619 2°54.611 314.6 10.7 310 8.8
2009-03-26 07:46:43 51°14.629 2°54.592 314.6 10.7 309 8.8
2009-03-26 07:46:49 51°14.64 2°54.57 314.6 10.8 309 8.8
2009-03-26 07:46:54 51°14.65 2°54.551 314.4 10.8 309 8.9
2009-03-26 07:46:58 51°14.657 2°54.537 314.2 10.9 309 8.9
2009-03-26 07:47:03 51°14.667 2°54.518 314.7 10.9 310 9
2009-03-26 07:47:08 51°14.676 2°54.5 315 10.9 309 9.1
2009-03-26 07:47:14 51°14.688 2°54.477 314.8 11 309 9.1
2009-03-26 07:47:18 51°14.696 2°54.462 314.4 11 309 9.1
2009-03-26 07:47:23 51°14.705 2°54.443 314.4 11.1 309 8.9
2009-03-26 07:47:28 51°14.715 2°54.424 314.4 11.2 309 9
2009-03-26 07:47:33 51°14.725 2°54.404 314.7 11.3 309 9
2009-03-26 07:47:38 51°14.735 2°54.385 314.9 11.3 309 8.7
2009-03-26 07:47:42 51°14.743 2°54.369 314.4 11.5 308 9.1
2009-03-26 07:47:49 51°14.757 2°54.341 314.3 11.7 307 9.1
2009-03-26 07:47:54 51°14.766 2°54.32 313.4 11.8 306 9.2
2009-03-26 07:47:58 51°14.774 2°54.303 313 11.9 306 9.3
2009-03-26 07:48:03 51°14.784 2°54.281 313.1 12 307 9.3
2009-03-26 07:48:09 51°14.796 2°54.256 313.7 12.1 307 9
2009-03-26 07:48:13 51°14.805 2°54.239 313.8 12.1 307 9.1
2009-03-26 07:48:18 51°14.815 2°54.218 313.9 12 308 8.8
2009-03-26 07:48:23 51°14.825 2°54.197 314.1 12.1 307 8.7
2009-03-26 07:48:29 51°14.837 2°54.17 313.2 12.1 305 8.5
2009-03-26 07:48:33 51°14.844 2°54.153 312.2 12.1 305 8.4
2009-03-26 07:48:38 51°14.854 2°54.131 311.8 12.1 305 8.3
2009-03-26 07:48:43 51°14.864 2°54.109 311.6 12 306 8.2
2009-03-26 07:48:49 51°14.876 2°54.083 312 12.1 306 8.3
2009-03-26 07:48:54 51°14.885 2°54.061 311.9 12.1 305 8.3
2009-03-26 07:48:58 51°14.893 2°54.044 311.5 12.1 305 8.3
2009-03-26 07:49:02 51°14.9 2°54.026 311.3 12.2 305 8.3
2009-03-26 07:49:09 51°14.914 2°53.995 311.5 12.1 305 8.3
2009-03-26 07:49:14 51°14.924 2°53.974 311.5 12.1 306 8.4
2009-03-26 07:49:18 51°14.932 2°53.956 312 12.1 307 8.4
2009-03-26 07:49:23 51°14.942 2°53.935 313.7 12.1 308 8.5
2009-03-26 07:49:28 51°14.952 2°53.914 314.6 12.2 307 8.1
2009-03-26 07:49:34 51°14.964 2°53.888 314.3 12.1 307 8.1
2009-03-26 07:49:38 51°14.973 2°53.871 314.2 12 307 8.2
2009-03-26 07:49:43 51°14.983 2°53.85 314.3 12.1 307 8.3
2009-03-26 07:49:48 51°14.993 2°53.828 314.3 12.1 307 8.7
2009-03-26 07:49:53 51°15.003 2°53.807 314.5 12.2 308 8.7
2009-03-26 07:49:58 51°15.014 2°53.786 314.9 12.2 308 8.5
2009-03-26 07:50:03 51°15.024 2°53.764 314.8 12.2 307 8.7
2009-03-26 07:50:09 51°15.036 2°53.739 315 12.2 308 8.7
2009-03-26 07:50:13 51°15.045 2°53.721 315.3 12.3 308 8.7
2009-03-26 07:50:18 51°15.055 2°53.7 315.2 12.2 307 8.6
2009-03-26 07:50:23 51°15.065 2°53.678 315.1 12.2 307 8.7
2009-03-26 07:50:29 51°15.077 2°53.652 314.6 12.2 307 8.5
2009-03-26 07:50:33 51°15.085 2°53.635 314.7 12.2 307 8.7
2009-03-26 07:50:38 51°15.096 2°53.614 315.2 12.2 308 8.6
2009-03-26 07:50:42 51°15.104 2°53.597 315.4 12.2 307 8.6
2009-03-26 07:50:49 51°15.118 2°53.567 315.3 12.2 307 8.7
2009-03-26 07:50:54 51°15.128 2°53.545 315.3 12.2 307 8.6
2009-03-26 07:50:58 51°15.137 2°53.528 315.3 12.2 308 8.7
2009-03-26 07:51:03 51°15.147 2°53.507 315.3 12.2 308 8.7
2009-03-26 07:51:09 51°15.159 2°53.481 315.6 12.2 308 8.7
2009-03-26 07:51:13 51°15.168 2°53.464 315.6 12.2 308 8.7
2009-03-26 07:51:18 51°15.178 2°53.443 315.3 12.2 307 8.8
2009-03-26 07:51:23 51°15.189 2°53.421 315.4 12.2 308 8.8
2009-03-26 07:51:28 51°15.199 2°53.4 315.6 12.2 308 9
2009-03-26 07:51:34 51°15.211 2°53.374 315.5 12.2 307 9
2009-03-26 07:51:38 51°15.219 2°53.357 315.2 12.3 307 9
2009-03-26 07:51:43 51°15.23 2°53.335 315.4 12.3 308 9.1
2009-03-26 07:51:49 51°15.242 2°53.309 315.5 12.3 307 9.2
2009-03-26 07:51:54 51°15.253 2°53.288 315.6 12.3 309 9.1
2009-03-26 07:51:58 51°15.262 2°53.271 316.3 12.3 309 9.1
2009-03-26 07:52:03 51°15.272 2°53.249 316.1 12.2 308 9.1
2009-03-26 07:52:09 51°15.285 2°53.224 315.9 12.2 309 9.3
2009-03-26 07:52:13 51°15.293 2°53.207 315.9 12.2 309 9.3
2009-03-26 07:52:18 51°15.304 2°53.186 316.2 12.2 309 9.4
2009-03-26 07:52:23 51°15.314 2°53.165 316 12.2 308 9.3
2009-03-26 07:52:29 51°15.327 2°53.14 315.8 12.2 308 9.3
2009-03-26 07:52:33 51°15.335 2°53.123 315.8 12.2 309 9.6
2009-03-26 07:52:38 51°15.346 2°53.102 316.3 12.3 309 9.1
2009-03-26 07:52:43 51°15.357 2°53.08 316.3 12.3 309 9.4
2009-03-26 07:52:49 51°15.369 2°53.055 316.2 12.2 309 9.3
2009-03-26 07:52:53 51°15.378 2°53.038 316.5 12.2 309 9.4
2009-03-26 07:52:58 51°15.389 2°53.017 316.4 12.3 308 9.6
2009-03-26 07:53:03 51°15.399 2°52.995 316.1 12.3 309 9.6
2009-03-26 07:53:09 51°15.412 2°52.97 316.1 12.3 309 9.6
2009-03-26 07:53:13 51°15.421 2°52.953 316.5 12.3 310 9.7
2009-03-26 07:53:19 51°15.434 2°52.928 317 12.3 310 9.6
2009-03-26 07:53:23 51°15.443 2°52.911 317.3 12.3 310 9.9
2009-03-26 07:53:29 51°15.455 2°52.886 316.6 12.3 309 10
2009-03-26 07:53:34 51°15.466 2°52.865 316.5 12.3 309 9.9
2009-03-26 07:53:38 51°15.475 2°52.848 317.2 12.3 310 10
2009-03-26 07:53:43 51°15.486 2°52.828 317.7 12.3 311 10
2009-03-26 07:53:48 51°15.498 2°52.807 318.2 12.3 311 10.1
2009-03-26 07:53:54 51°15.511 2°52.783 318.3 12.4 311 10.3
2009-03-26 07:53:58 51°15.52 2°52.766 318.6 12.4 311 10.2
2009-03-26 07:54:03 51°15.531 2°52.746 318.8 12.4 312 10.2
2009-03-26 07:54:09 51°15.545 2°52.721 318.9 12.4 311 10.2
2009-03-26 07:54:13 51°15.554 2°52.705 318.9 12.3 311 10.2
2009-03-26 07:54:18 51°15.565 2°52.684 318.7 12.3 310 10.2
2009-03-26 07:54:23 51°15.576 2°52.663 318.4 12.4 311 10.3
2009-03-26 07:54:29 51°15.59 2°52.638 318.5 12.4 310 10.4
2009-03-26 07:54:33 51°15.599 2°52.622 318.4 12.3 311 10.3
2009-03-26 07:54:39 51°15.612 2°52.597 318.5 12.4 310 10.4
2009-03-26 07:54:43 51°15.621 2°52.58 318.4 12.4 310 10.4
2009-03-26 07:54:49 51°15.634 2°52.555 318.1 12.4 310 10.5
2009-03-26 07:54:53 51°15.643 2°52.538 317.9 12.4 310 10.5
2009-03-26 07:54:58 51°15.654 2°52.517 317.8 12.4 310 10.6
2009-03-26 07:55:03 51°15.665 2°52.496 318 12.4 310 10.7
2009-03-26 07:55:09 51°15.679 2°52.471 318 12.4 310 10.7
2009-03-26 07:55:13 51°15.687 2°52.454 317.9 12.4 309 10.7
2009-03-26 07:55:19 51°15.7 2°52.428 317.7 12.4 310 10.8
2009-03-26 07:55:23 51°15.709 2°52.411 317.8 12.5 309 10.9
2009-03-26 07:55:29 51°15.722 2°52.386 317.3 12.3 309 10.9
2009-03-26 07:55:34 51°15.733 2°52.364 317.1 12.4 309 10.9
2009-03-26 07:55:38 51°15.742 2°52.347 317.2 12.4 309 11
2009-03-26 07:55:43 51°15.753 2°52.326 317.3 12.4 309 11
2009-03-26 07:55:49 51°15.766 2°52.301 317.3 12.4 310 11
2009-03-26 07:55:54 51°15.777 2°52.28 317.6 12.4 310 11.1
2009-03-26 07:55:58 51°15.786 2°52.263 317.5 12.4 309 11.1
2009-03-26 07:56:03 51°15.797 2°52.242 317.3 12.4 310 11.1
2009-03-26 07:56:08 51°15.807 2°52.221 317.2 12.4 310 11.1
2009-03-26 07:56:14 51°15.821 2°52.196 317.3 12.3 310 11.1
2009-03-26 07:56:18 51°15.829 2°52.179 317.2 12.3 309 11.2
2009-03-26 07:56:23 51°15.84 2°52.158 317 12.3 310 11.2
2009-03-26 07:56:28 51°15.851 2°52.137 316.8 12.3 310 11.2
2009-03-26 07:56:34 51°15.864 2°52.111 317 12.3 310 11.2
2009-03-26 07:56:38 51°15.873 2°52.095 316.8 12.3 309 11.2
2009-03-26 07:56:43 51°15.884 2°52.074 316.8 12.3 311 11.2
2009-03-26 07:56:49 51°15.897 2°52.049 317.1 12.2 311 11.2
2009-03-26 07:56:53 51°15.906 2°52.033 317 12.2 310 11.2
2009-03-26 07:56:58 51°15.917 2°52.012 316.9 12.2 310 11.3
2009-03-26 07:57:03 51°15.928 2°51.991 316.8 12.2 310 11.3
2009-03-26 07:57:09 51°15.941 2°51.966 316.7 12.2 310 11.4
2009-03-26 07:57:13 51°15.95 2°51.95 316.9 12.2 310 11.4
2009-03-26 07:57:19 51°15.963 2°51.925 316.9 12.2 310 11.5
2009-03-26 07:57:23 51°15.972 2°51.909 316.6 12.2 310 11.5
2009-03-26 07:57:29 51°15.984 2°51.883 316.5 12.2 309 11.5
2009-03-26 07:57:34 51°15.995 2°51.863 316.2 12.2 310 11.5
2009-03-26 07:57:38 51°16.004 2°51.846 316.5 12.2 310 11.6
2009-03-26 07:57:43 51°16.015 2°51.826 316.5 12.2 310 11.5
2009-03-26 07:57:49 51°16.028 2°51.801 316.6 12.2 311 11.5
2009-03-26 07:57:54 51°16.039 2°51.781 317.1 12.2 311 11.6
2009-03-26 07:57:58 51°16.048 2°51.765 318.1 12.1 312 11.6
2009-03-26 07:58:03 51°16.059 2°51.745 318.5 12.1 311 11.5
2009-03-26 07:58:09 51°16.073 2°51.721 318.7 12.1 312 11.6
2009-03-26 07:58:14 51°16.084 2°51.702 319.5 12.1 313 11.6
2009-03-26 07:58:18 51°16.093 2°51.686 319.4 12.1 312 11.6
2009-03-26 07:58:23 51°16.105 2°51.667 319.5 12.1 314 11.6
2009-03-26 07:58:28 51°16.116 2°51.647 319.7 12.1 313 11.4
2009-03-26 07:58:34 51°16.13 2°51.624 319.9 12 314 11.4
2009-03-26 07:58:39 51°16.141 2°51.604 319.9 12 313 11.5
2009-03-26 07:58:43 51°16.15 2°51.589 319.4 12 313 11.4
2009-03-26 07:58:49 51°16.164 2°51.565 319.4 12 312 11.4
2009-03-26 07:58:53 51°16.173 2°51.549 319.2 12 313 11.4
2009-03-26 07:58:58 51°16.184 2°51.53 319.4 12 313 11.5
2009-03-26 07:59:03 51°16.196 2°51.511 319.5 12 313 11.4
2009-03-26 07:59:09 51°16.209 2°51.487 319.6 12 313 11.2
2009-03-26 07:59:13 51°16.218 2°51.472 319.5 12 312 11.1
2009-03-26 07:59:19 51°16.232 2°51.449 319.4 11.9 313 10.8
2009-03-26 07:59:23 51°16.24 2°51.433 319.4 11.9 313 10.5
2009-03-26 07:59:29 51°16.254 2°51.41 319.4 11.9 313 10.3
2009-03-26 07:59:34 51°16.265 2°51.391 319.7 11.8 313 9.8
2009-03-26 07:59:38 51°16.274 2°51.375 319.7 11.8 312 9.7
2009-03-26 07:59:44 51°16.287 2°51.352 319.4 11.7 312 9.9
2009-03-26 07:59:49 51°16.298 2°51.333 319.4 11.7 313 10.2
2009-03-26 07:59:54 51°16.309 2°51.313 318.7 11.8 310 10.5
2009-03-26 07:59:58 51°16.318 2°51.298 318.2 11.8 313 10.6
2009-03-26 08:00:03 51°16.328 2°51.278 318 11.8 311 10.7
2009-03-26 08:00:09 51°16.342 2°51.256 318.6 11.7 314 10.8
2009-03-26 08:00:14 51°16.354 2°51.238 321.2 11.6 316 10.8
2009-03-26 08:00:18 51°16.363 2°51.223 322.3 11.7 316 10.9
2009-03-26 08:00:23 51°16.375 2°51.206 323.9 11.7 318 11
2009-03-26 08:00:29 51°16.39 2°51.187 325 11.6 320 11
2009-03-26 08:00:34 51°16.402 2°51.171 326.4 11.5 322 11
2009-03-26 08:00:39 51°16.416 2°51.158 330.4 11.4 329 11
2009-03-26 08:00:43 51°16.427 2°51.147 333.5 11.4 328 11
2009-03-26 08:00:49 51°16.443 2°51.133 335.9 11.3 333 11.1
2009-03-26 08:00:54 51°16.457 2°51.122 338.4 11.3 334 11.1
2009-03-26 08:00:58 51°16.469 2°51.114 341.2 11.3 340 11.2
2009-03-26 08:01:03 51°16.484 2°51.107 344.8 11.2 341 11.2
2009-03-26 08:01:09 51°16.501 2°51.098 347.1 11.1 344 11
2009-03-26 08:01:13 51°16.513 2°51.093 350.3 11.2 345 11
2009-03-26 08:01:19 51°16.531 2°51.087 351.4 11.1 348 10.5
2009-03-26 08:01:23 51°16.543 2°51.084 354.3 11 351 10.2
2009-03-26 08:01:29 51°16.561 2°51.081 357.2 10.9 355 9.9
2009-03-26 08:01:34 51°16.576 2°51.079 359.7 10.8 356 9.8
2009-03-26 08:01:38 51°16.588 2°51.078 2.1 10.2 358 9.8
2009-03-26 08:01:43 51°16.601 2°51.078 3.4 9.7 359 9.6
2009-03-26 08:01:49 51°16.617 2°51.078 5 9.3 -999 9.5
2009-03-26 08:01:53 51°16.627 2°51.079 6.1 8.9 2 9.5
2009-03-26 08:01:58 51°16.639 2°51.079 7.1 8.5 4 9.5
2009-03-26 08:02:03 51°16.65 2°51.081 8.2 8.3 4 9.4
2009-03-26 08:02:09 51°16.663 2°51.083 9.4 8 6 9.4
2009-03-26 08:02:13 51°16.672 2°51.083 9.9 7.8 3 9.3
2009-03-26 08:02:19 51°16.685 2°51.085 10 7.7 5 9.3
2009-03-26 08:02:23 51°16.693 2°51.086 10.3 7.6 4 9.3
2009-03-26 08:02:29 51°16.706 2°51.088 10.5 7.5 6 9.3
2009-03-26 08:02:34 51°16.716 2°51.089 11.2 7.4 4 9.3
2009-03-26 08:02:39 51°16.726 2°51.092 11.3 7.3 7 9.3
2009-03-26 08:02:43 51°16.734 2°51.092 11.1 7.3 3 9.5
2009-03-26 08:02:49 51°16.746 2°51.095 11.1 7.2 6 9.6
2009-03-26 08:02:54 51°16.756 2°51.096 11 7.2 5 9.7
2009-03-26 08:02:58 51°16.764 2°51.097 10.9 7.1 5 9.8
2009-03-26 08:03:03 51°16.773 2°51.098 10.6 6.6 4 9.9
2009-03-26 08:03:09 51°16.783 2°51.099 9.9 6.1 4 10
2009-03-26 08:03:14 51°16.791 2°51.1 9 5.7 3 10.1
2009-03-26 08:03:19 51°16.798 2°51.1 7.7 5.2 -999 10.1
2009-03-26 08:03:23 51°16.804 2°51.1 6.5 4.8 358 10.1
2009-03-26 08:03:29 51°16.811 2°51.099 5.2 4.4 356 10.1
2009-03-26 08:03:34 51°16.817 2°51.098 3.9 4.2 356 10.1
2009-03-26 08:03:38 51°16.821 2°51.097 2.4 3.9 354 10.1
2009-03-26 08:03:43 51°16.826 2°51.096 1.5 3.7 352 10.1
2009-03-26 08:03:49 51°16.832 2°51.095 0.8 3.5 352 10
2009-03-26 08:03:53 51°16.836 2°51.095 0.6 3.4 353 9.9
2009-03-26 08:03:59 51°16.841 2°51.093 0.9 3.4 350 10
2009-03-26 08:04:03 51°16.845 2°51.093 2.3 3.1 359 9.9
2009-03-26 08:04:09 51°16.85 2°51.092 3.7 2.8 352 9.9
2009-03-26 08:04:14 51°16.853 2°51.092 4.5 2.6 358 9.7
2009-03-26 08:04:18 51°16.856 2°51.091 3.8 2.5 351 9.7
2009-03-26 08:04:23 51°16.859 2°51.09 1.5 2.5 349 9.8
2009-03-26 08:04:29 51°16.863 2°51.089 358.1 2.4 343 9.8
2009-03-26 08:04:33 51°16.866 2°51.087 354 2.1 338 9.9
2009-03-26 08:04:39 51°16.868 2°51.085 350.8 1.8 330 9.9
2009-03-26 08:04:43 51°16.87 2°51.083 348.7 1.4 327 9.9
2009-03-26 08:04:49 51°16.872 2°51.081 346.7 1.4 319 9.9
2009-03-26 08:04:54 51°16.873 2°51.079 343.9 1.3 320 9.8
2009-03-26 08:04:58 51°16.874 2°51.078 341.2 1.3 311 9.8
2009-03-26 08:05:03 51°16.875 2°51.075 339.1 1.2 308 9.8
2009-03-26 08:05:09 51°16.876 2°51.073 337 1.1 311 9.8
2009-03-26 08:05:14 51°16.877 2°51.071 334.9 1.2 305 9.8
2009-03-26 08:05:19 51°16.878 2°51.069 333.3 1.2 304 9.8
2009-03-26 08:05:23 51°16.879 2°51.067 331.6 1.2 294 9.7
2009-03-26 08:05:29 51°16.879 2°51.065 330.3 1 295 9.6
2009-03-26 08:05:34 51°16.88 2°51.063 328.9 1 290 9.6
2009-03-26 08:05:38 51°16.88 2°51.061 327.5 1 289 9.7
2009-03-26 08:05:43 51°16.881 2°51.059 326 1 285 9.8
2009-03-26 08:05:49 51°16.881 2°51.057 325 1 286 9.7
2009-03-26 08:05:54 51°16.881 2°51.054 324 1 273 9.7
2009-03-26 08:05:59 51°16.881 2°51.053 323.2 0.8 276 9.7
2009-03-26 08:06:03 51°16.881 2°51.051 322.7 0.8 265 9.6
2009-03-26 08:06:09 51°16.881 2°51.049 321.7 0.7 265 9.6
2009-03-26 08:06:13 51°16.881 2°51.048 320.8 0.8 263 9.7
2009-03-26 08:06:18 51°16.881 2°51.046 320.2 0.8 266 9.7
2009-03-26 08:06:23 51°16.881 2°51.044 319.5 0.8 258 9.6
2009-03-26 08:06:29 51°16.881 2°51.042 318.9 0.7 263 9.6
2009-03-26 08:06:34 51°16.88 2°51.04 318.1 0.8 257 9.7
2009-03-26 08:06:38 51°16.88 2°51.039 317.8 0.7 250 9.7
2009-03-26 08:06:44 51°16.88 2°51.038 317.6 0.6 253 9.7
2009-03-26 08:06:49 51°16.879 2°51.036 316.9 0.7 248 9.7
2009-03-26 08:06:54 51°16.879 2°51.035 316.1 0.7 246 9.6
2009-03-26 08:06:58 51°16.879 2°51.034 315.4 0.6 248 9.6
2009-03-26 08:07:03 51°16.878 2°51.032 314.7 0.6 243 9.6
2009-03-26 08:07:09 51°16.878 2°51.031 314 0.6 239 9.6
2009-03-26 08:07:14 51°16.878 2°51.03 313.5 0.6 236 9.6
2009-03-26 08:07:18 51°16.877 2°51.029 313.6 0.6 236 9.6
2009-03-26 08:07:23 51°16.877 2°51.028 313.6 0.5 231 9.6
2009-03-26 08:07:29 51°16.876 2°51.027 313.4 0.5 227 9.5
2009-03-26 08:07:34 51°16.876 2°51.026 313.4 0.6 230 9.6
2009-03-26 08:07:38 51°16.876 2°51.025 313 0.6 230 9.6
2009-03-26 08:07:43 51°16.875 2°51.024 313.3 0.5 227 9.6
2009-03-26 08:07:48 51°16.875 2°51.023 312.9 0.6 228 9.6
2009-03-26 08:07:54 51°16.874 2°51.022 312.5 0.7 229 9.6
2009-03-26 08:07:58 51°16.874 2°51.021 312.4 0.5 231 9.6
2009-03-26 08:08:03 51°16.873 2°51.02 311.9 0.6 226 9.6
2009-03-26 08:08:09 51°16.873 2°51.019 311.6 0.5 225 9.6
2009-03-26 08:08:13 51°16.872 2°51.019 311.6 0.5 220 9.6
2009-03-26 08:08:18 51°16.872 2°51.018 311.1 0.6 218 9.6
2009-03-26 08:08:23 51°16.871 2°51.017 311 0.4 224 9.7
2009-03-26 08:08:29 51°16.87 2°51.016 310.7 0.6 222 9.6
2009-03-26 08:08:33 51°16.87 2°51.016 310.7 0.5 217 9.6
2009-03-26 08:08:39 51°16.869 2°51.015 310.8 0.4 216 9.6
2009-03-26 08:08:43 51°16.869 2°51.014 310.7 0.6 218 9.5
2009-03-26 08:08:49 51°16.868 2°51.013 310.6 0.5 210 9.6
2009-03-26 08:08:54 51°16.867 2°51.013 310.7 0.5 205 9.5
2009-03-26 08:08:58 51°16.867 2°51.012 310.5 0.4 200 9.5
2009-03-26 08:09:03 51°16.866 2°51.012 310.1 0.5 207 9.6
2009-03-26 08:09:09 51°16.865 2°51.012 310.7 0.5 210 9.5
2009-03-26 08:09:14 51°16.865 2°51.011 311.2 0.4 198 9.5
2009-03-26 08:09:18 51°16.864 2°51.011 311.8 0.4 193 9.6
2009-03-26 08:09:23 51°16.864 2°51.011 311.7 0.5 202 9.5
2009-03-26 08:09:29 51°16.863 2°51.01 312.2 0.5 203 9.5
2009-03-26 08:09:34 51°16.863 2°51.01 312.9 0.5 205 9.6
2009-03-26 08:09:39 51°16.862 2°51.01 313.3 0.5 198 9.6
2009-03-26 08:09:43 51°16.861 2°51.01 313.6 0.4 191 9.5
2009-03-26 08:09:49 51°16.86 2°51.009 313.6 0.6 200 9.6
2009-03-26 08:09:54 51°16.86 2°51.009 313.7 0.4 197 9.6
2009-03-26 08:09:58 51°16.859 2°51.009 313.8 0.5 195 9.6
2009-03-26 08:10:03 51°16.859 2°51.008 313.7 0.5 193 9.6
2009-03-26 08:10:09 51°16.858 2°51.008 314 0.5 191 9.6
2009-03-26 08:10:14 51°16.857 2°51.008 314.4 0.4 186 9.6
2009-03-26 08:10:18 51°16.857 2°51.007 314.6 0.5 198 9.5
2009-03-26 08:10:23 51°16.856 2°51.007 315.1 0.5 194 9.6
2009-03-26 08:10:29 51°16.856 2°51.007 315.4 0.5 195 9.5
2009-03-26 08:10:33 51°16.855 2°51.007 315.6 0.5 196 9.5
2009-03-26 08:10:38 51°16.854 2°51.007 316 0.4 191 9.6
2009-03-26 08:10:43 51°16.854 2°51.006 316.5 0.5 190 9.6
2009-03-26 08:10:49 51°16.853 2°51.006 316.7 0.5 181 9.5
2009-03-26 08:10:54 51°16.852 2°51.006 317.3 0.6 191 9.5
2009-03-26 08:10:58 51°16.852 2°51.006 317.6 0.5 186 9.6
2009-03-26 08:11:03 51°16.851 2°51.005 318.2 0.5 192 9.5
2009-03-26 08:11:09 51°16.85 2°51.005 318.3 0.5 187 9.5
2009-03-26 08:11:14 51°16.849 2°51.005 318.7 0.6 187 9.5
2009-03-26 08:11:18 51°16.849 2°51.005 319.3 0.5 182 9.5
2009-03-26 08:11:23 51°16.848 2°51.005 319.4 0.5 191 9.5
2009-03-26 08:11:29 51°16.847 2°51.004 319.6 0.5 189 9.5
2009-03-26 08:11:34 51°16.846 2°51.004 320.1 0.6 191 9.5
2009-03-26 08:11:38 51°16.846 2°51.005 321.1 0.6 174 9.4
2009-03-26 08:11:43 51°16.845 2°51.004 321.5 0.7 179 9.4
2009-03-26 08:11:49 51°16.844 2°51.005 322 0.7 172 9.5
2009-03-26 08:11:54 51°16.843 2°51.005 322.4 0.6 181 9.4
2009-03-26 08:11:58 51°16.843 2°51.005 322.9 0.6 176 9.4
2009-03-26 08:12:03 51°16.842 2°51.005 323.4 0.7 181 9.5
2009-03-26 08:12:09 51°16.841 2°51.005 323.8 0.6 174 9.6
2009-03-26 08:12:14 51°16.84 2°51.005 324.1 0.7 182 9.7
2009-03-26 08:12:18 51°16.839 2°51.005 324.6 0.6 178 9.6
2009-03-26 08:12:23 51°16.838 2°51.005 325.2 0.6 177 9.6
2009-03-26 08:12:29 51°16.838 2°51.005 325.2 0.6 180 9.6
2009-03-26 08:12:34 51°16.837 2°51.005 325.8 0.6 181 9.6
2009-03-26 08:12:39 51°16.836 2°51.005 326.2 0.6 173 9.6
2009-03-26 08:12:43 51°16.835 2°51.004 326.4 0.6 189 9.6
2009-03-26 08:12:48 51°16.834 2°51.005 326.7 0.6 174 9.6
2009-03-26 08:12:54 51°16.833 2°51.005 326.9 0.7 183 9.5
2009-03-26 08:12:58 51°16.833 2°51.005 327.8 0.7 178 9.4
2009-03-26 08:13:03 51°16.832 2°51.005 328.2 0.7 168 9.4
2009-03-26 08:13:09 51°16.83 2°51.005 328.2 0.6 180 9.5
2009-03-26 08:13:13 51°16.83 2°51.005 328.5 0.6 180 9.5
2009-03-26 08:13:18 51°16.829 2°51.005 328.9 0.7 173 9.5
2009-03-26 08:13:23 51°16.828 2°51.005 329.3 0.7 174 9.5
2009-03-26 08:13:29 51°16.827 2°51.005 329.7 0.6 181 9.6
2009-03-26 08:13:34 51°16.826 2°51.005 330.1 0.8 187 9.6
2009-03-26 08:13:38 51°16.825 2°51.005 330.5 0.6 167 9.6
2009-03-26 08:13:43 51°16.824 2°51.005 330.7 0.6 182 9.7
2009-03-26 08:13:49 51°16.823 2°51.005 330.6 0.6 181 9.6
2009-03-26 08:13:54 51°16.822 2°51.005 330.9 0.7 178 9.5
2009-03-26 08:13:58 51°16.821 2°51.005 331.3 0.6 178 9.6
2009-03-26 08:14:03 51°16.821 2°51.005 331.7 0.6 180 9.6
2009-03-26 08:14:09 51°16.819 2°51.005 332.4 0.7 178 9.6
2009-03-26 08:14:14 51°16.818 2°51.005 332.5 0.6 180 9.6
2009-03-26 08:14:18 51°16.818 2°51.005 332.8 0.6 176 9.7
2009-03-26 08:14:23 51°16.817 2°51.006 332.9 0.6 180 9.6
2009-03-26 08:14:28 51°16.816 2°51.006 332.7 0.6 177 9.7
2009-03-26 08:14:34 51°16.815 2°51.006 333 0.6 170 9.6
2009-03-26 08:14:38 51°16.814 2°51.006 332.8 0.6 177 9.6
2009-03-26 08:14:43 51°16.813 2°51.006 332.5 0.6 185 9.6
2009-03-26 08:14:49 51°16.813 2°51.006 332.9 0.6 177 9.6
2009-03-26 08:14:53 51°16.812 2°51.006 333 0.6 176 9.6
2009-03-26 08:14:58 51°16.811 2°51.006 332.9 0.6 177 9.6
2009-03-26 08:15:03 51°16.811 2°51.006 332.9 0.6 182 9.7
2009-03-26 08:15:09 51°16.809 2°51.006 333.1 0.6 177 9.7
2009-03-26 08:15:13 51°16.808 2°51.006 333.1 0.7 174 9.6
2009-03-26 08:15:19 51°16.807 2°51.006 333 0.7 184 9.6
2009-03-26 08:15:23 51°16.807 2°51.006 333.5 0.6 179 9.6
2009-03-26 08:15:29 51°16.806 2°51.006 333.7 0.6 180 9.6
2009-03-26 08:15:34 51°16.805 2°51.006 333.6 0.6 185 9.6
2009-03-26 08:15:38 51°16.804 2°51.006 333.7 0.6 183 9.6
2009-03-26 08:15:43 51°16.804 2°51.006 334 0.5 174 9.6
2009-03-26 08:15:49 51°16.803 2°51.006 333.8 0.6 189 9.6
2009-03-26 08:15:54 51°16.802 2°51.006 333.7 0.5 174 9.6
2009-03-26 08:15:58 51°16.801 2°51.006 333.5 0.6 189 9.6
2009-03-26 08:16:03 51°16.8 2°51.006 333.2 0.6 175 9.6
2009-03-26 08:16:09 51°16.799 2°51.006 333.2 0.6 180 9.5
2009-03-26 08:16:14 51°16.799 2°51.006 333.1 0.6 184 9.6
2009-03-26 08:16:18 51°16.798 2°51.006 333 0.5 179 9.6
2009-03-26 08:16:23 51°16.797 2°51.006 333.1 0.6 186 9.6
2009-03-26 08:16:28 51°16.796 2°51.006 332.8 0.6 175 9.6
2009-03-26 08:16:34 51°16.795 2°51.006 333 0.6 180 9.6
2009-03-26 08:16:38 51°16.795 2°51.006 332.9 0.6 181 9.5
2009-03-26 08:16:43 51°16.794 2°51.006 333.2 0.6 175 9.6
2009-03-26 08:16:49 51°16.793 2°51.006 333.2 0.6 187 9.5
2009-03-26 08:16:54 51°16.792 2°51.006 332.9 0.6 191 9.5
2009-03-26 08:16:59 51°16.792 2°51.006 332.9 0.5 188 9.5
2009-03-26 08:17:03 51°16.791 2°51.005 332.8 0.5 187 9.6
2009-03-26 08:17:08 51°16.79 2°51.005 332.5 0.5 201 9.6
2009-03-26 08:17:14 51°16.79 2°51.005 332.4 0.4 189 9.6
2009-03-26 08:17:18 51°16.789 2°51.005 332.3 0.4 194 9.6
2009-03-26 08:17:23 51°16.788 2°51.004 331.8 0.3 201 9.6
2009-03-26 08:17:29 51°16.788 2°51.003 331.6 0.3 209 9.6
2009-03-26 08:17:33 51°16.787 2°51.003 331.6 0.4 212 9.5
2009-03-26 08:17:39 51°16.787 2°51.003 332 0.3 200 9.5
2009-03-26 08:17:43 51°16.786 2°51.002 332.1 0.4 218 9.5
2009-03-26 08:17:49 51°16.786 2°51.002 332 0.4 224 9.5
2009-03-26 08:17:54 51°16.786 2°51.001 331.8 0.4 218 9.5
2009-03-26 08:17:58 51°16.785 2°51.001 331.6 0.4 227 9.6
2009-03-26 08:18:03 51°16.785 2°51 331.1 0.5 232 9.6
2009-03-26 08:18:09 51°16.785 2°50.999 331 0.4 236 9.6
2009-03-26 08:18:14 51°16.784 2°50.998 330.6 0.4 251 9.7
2009-03-26 08:18:18 51°16.784 2°50.997 330 0.4 266 9.6
2009-03-26 08:18:23 51°16.784 2°50.996 329.7 0.5 262 9.6
2009-03-26 08:18:29 51°16.784 2°50.995 329.7 0.5 259 9.6
2009-03-26 08:18:34 51°16.784 2°50.994 329.7 0.5 269 9.6
2009-03-26 08:18:38 51°16.784 2°50.993 329.6 0.6 269 9.6
2009-03-26 08:18:43 51°16.784 2°50.992 329.4 0.5 272 9.6
2009-03-26 08:18:49 51°16.784 2°50.99 329 0.7 271 9.5
2009-03-26 08:18:54 51°16.784 2°50.989 328.8 0.6 267 9.5
2009-03-26 08:18:58 51°16.784 2°50.988 328.7 0.6 271 9.6
2009-03-26 08:19:03 51°16.785 2°50.986 328.5 0.7 273 9.5
2009-03-26 08:19:09 51°16.785 2°50.985 328.5 0.6 274 9.4
2009-03-26 08:19:14 51°16.785 2°50.984 329.3 0.6 269 9.4
2009-03-26 08:19:18 51°16.785 2°50.982 330 0.5 275 9.3
2009-03-26 08:19:23 51°16.785 2°50.981 330.5 0.6 272 9.4
2009-03-26 08:19:29 51°16.785 2°50.98 331.1 0.6 274 9.4
2009-03-26 08:19:34 51°16.785 2°50.978 331.5 0.6 285 9.5
2009-03-26 08:19:38 51°16.785 2°50.977 331.1 0.7 284 9.5
2009-03-26 08:19:43 51°16.786 2°50.976 330.9 0.8 282 9.5
2009-03-26 08:19:49 51°16.786 2°50.973 330.6 0.7 280 9.4
2009-03-26 08:19:53 51°16.786 2°50.972 330.8 0.7 280 9.5
2009-03-26 08:19:58 51°16.786 2°50.971 330.4 0.7 281 9.5
2009-03-26 08:20:03 51°16.787 2°50.969 330.1 0.7 282 9.5
2009-03-26 08:20:09 51°16.787 2°50.967 329.7 0.8 284 9.6
2009-03-26 08:20:13 51°16.787 2°50.966 329.7 0.9 284 9.6
2009-03-26 08:20:18 51°16.787 2°50.964 329.6 0.9 284 9.5
2009-03-26 08:20:23 51°16.788 2°50.962 329.8 0.9 284 9.5
2009-03-26 08:20:29 51°16.788 2°50.96 329.5 0.8 286 9.5
2009-03-26 08:20:34 51°16.788 2°50.958 329.4 0.8 285 9.5
2009-03-26 08:20:38 51°16.789 2°50.957 329.2 0.8 292 9.5
2009-03-26 08:20:43 51°16.789 2°50.955 329.5 0.9 288 9.6
2009-03-26 08:20:49 51°16.79 2°50.953 329.4 0.9 291 9.5
2009-03-26 08:20:54 51°16.79 2°50.951 329.6 0.9 291 9.5
2009-03-26 08:20:58 51°16.79 2°50.949 329.7 0.9 289 9.4
2009-03-26 08:21:03 51°16.791 2°50.948 330.1 0.9 297 9.4
2009-03-26 08:21:09 51°16.792 2°50.945 331.1 1 299 9.5
2009-03-26 08:21:14 51°16.792 2°50.943 332.5 1.1 301 9.5
2009-03-26 08:21:18 51°16.793 2°50.941 334.5 1.2 305 9.5
2009-03-26 08:21:23 51°16.795 2°50.939 336.4 1.3 314 9.4
2009-03-26 08:21:29 51°16.796 2°50.936 338.3 1.5 315 9.5
2009-03-26 08:21:34 51°16.798 2°50.934 340.2 1.4 323 9.4
2009-03-26 08:21:38 51°16.799 2°50.933 343.1 1.4 327 9.2
2009-03-26 08:21:43 51°16.801 2°50.931 346.3 1.5 333 9.2
2009-03-26 08:21:49 51°16.803 2°50.929 349.3 1.7 334 9.3
2009-03-26 08:21:53 51°16.805 2°50.928 352.7 1.6 342 9.3
2009-03-26 08:21:58 51°16.807 2°50.927 356.2 1.7 345 9.4
2009-03-26 08:22:03 51°16.809 2°50.926 359 1.7 348 9.4
2009-03-26 08:22:09 51°16.812 2°50.926 2.5 1.7 353 9.5
2009-03-26 08:22:13 51°16.814 2°50.926 5.8 1.7 354 9.4
2009-03-26 08:22:19 51°16.817 2°50.926 9.1 1.8 1 9.4
2009-03-26 08:22:23 51°16.819 2°50.926 12.5 1.8 7 9.3
2009-03-26 08:22:29 51°16.822 2°50.927 16 1.7 12 9.4
2009-03-26 08:22:34 51°16.824 2°50.929 19.8 1.7 18 9.4
2009-03-26 08:22:38 51°16.826 2°50.93 23.8 1.8 23 9.3
2009-03-26 08:22:43 51°16.828 2°50.932 27.7 1.8 29 9.3
2009-03-26 08:22:49 51°16.831 2°50.935 32.1 1.8 39 9.4
2009-03-26 08:22:54 51°16.833 2°50.937 36.9 1.8 42 9.4
2009-03-26 08:22:58 51°16.834 2°50.94 41.8 1.9 53 9.5
2009-03-26 08:23:04 51°16.836 2°50.944 46.5 1.9 59 9.5
2009-03-26 08:23:09 51°16.837 2°50.948 51.3 1.9 64 9.4
2009-03-26 08:23:14 51°16.838 2°50.952 54.7 2 66 9.4
2009-03-26 08:23:18 51°16.839 2°50.956 57.6 2.2 69 9.4
2009-03-26 08:23:23 51°16.84 2°50.96 60.1 2.3 71 9.5
2009-03-26 08:23:28 51°16.841 2°50.965 62.8 2.4 74 9.6
2009-03-26 08:23:34 51°16.842 2°50.972 64.4 2.4 78 9.5
2009-03-26 08:23:38 51°16.842 2°50.976 66.6 2.4 79 9.5
2009-03-26 08:23:43 51°16.843 2°50.981 69 2.6 80 9.5
2009-03-26 08:23:49 51°16.843 2°50.989 70.9 2.9 81 9.6
2009-03-26 08:23:54 51°16.844 2°50.996 72.3 3.3 85 9.7
2009-03-26 08:23:59 51°16.845 2°51.004 73.7 3.5 84 9.7
2009-03-26 08:24:03 51°16.845 2°51.01 75.3 3.7 85 9.7
2009-03-26 08:24:09 51°16.846 2°51.021 76.7 4.2 85 9.8
2009-03-26 08:24:14 51°16.846 2°51.031 77.7 4.6 86 9.9
2009-03-26 08:24:18 51°16.846 2°51.04 78.5 4.9 87 10
2009-03-26 08:24:23 51°16.847 2°51.051 79.6 5.3 88 10.1
2009-03-26 08:24:29 51°16.847 2°51.066 80.2 5.5 86 10.1
2009-03-26 08:24:33 51°16.848 2°51.076 80.7 5.7 85 10.1
2009-03-26 08:24:38 51°16.848 2°51.089 80.9 5.9 86 10.1
2009-03-26 08:24:43 51°16.849 2°51.102 81.7 5.8 86 10.2
2009-03-26 08:24:49 51°16.85 2°51.116 78.1 5.6 81 10.1
2009-03-26 08:24:54 51°16.853 2°51.127 71.2 5.2 68 10.1
2009-03-26 08:24:58 51°16.855 2°51.134 62.6 4.6 62 10
2009-03-26 08:25:03 51°16.858 2°51.142 55.2 4 59 10
2009-03-26 08:25:09 51°16.862 2°51.15 50.7 3.6 55 10
2009-03-26 08:25:14 51°16.865 2°51.156 46.9 3.4 48 9.9
2009-03-26 08:25:18 51°16.868 2°51.16 43.5 3.1 45 9.9
2009-03-26 08:25:23 51°16.871 2°51.164 39.5 3 43 9.9
2009-03-26 08:25:29 51°16.875 2°51.168 34.2 2.8 33 9.7
2009-03-26 08:25:34 51°16.878 2°51.17 29.4 2.6 24 9.5
2009-03-26 08:25:38 51°16.881 2°51.172 24.9 2.6 18 9.6
2009-03-26 08:25:43 51°16.884 2°51.173 19.5 2.5 11 9.6
2009-03-26 08:25:49 51°16.888 2°51.174 13.9 2.4 2 9.7
2009-03-26 08:25:54 51°16.892 2°51.173 8.3 2.3 357 9.6
2009-03-26 08:25:58 51°16.894 2°51.172 3 2.1 348 9.7
2009-03-26 08:26:03 51°16.897 2°51.171 358.1 2 344 9.6
2009-03-26 08:26:09 51°16.9 2°51.169 354.7 1.8 343 9.6
2009-03-26 08:26:13 51°16.901 2°51.168 352.3 1.7 339 9.7
2009-03-26 08:26:18 51°16.903 2°51.166 350.6 1.6 331 9.6
2009-03-26 08:26:23 51°16.905 2°51.165 349.6 1.5 330 9.6
2009-03-26 08:26:29 51°16.907 2°51.163 347.9 1.4 324 9.6
2009-03-26 08:26:33 51°16.908 2°51.161 346.3 1.3 318 9.7
2009-03-26 08:26:39 51°16.909 2°51.159 343.5 1.1 312 9.7
2009-03-26 08:26:43 51°16.91 2°51.158 340.9 0.9 308 9.7
2009-03-26 08:26:48 51°16.91 2°51.156 338.3 0.7 300 9.5
2009-03-26 08:26:54 51°16.911 2°51.155 335.9 0.7 300 9.6
2009-03-26 08:26:58 51°16.911 2°51.153 333.8 0.7 290 9.7
2009-03-26 08:27:03 51°16.911 2°51.152 331.8 0.6 283 9.6
2009-03-26 08:27:09 51°16.912 2°51.15 330 0.7 285 9.6
2009-03-26 08:27:14 51°16.912 2°51.149 327.9 0.8 277 9.7
2009-03-26 08:27:18 51°16.912 2°51.148 326.1 0.6 274 9.6
2009-03-26 08:27:24 51°16.912 2°51.146 325.1 0.6 269 9.6
2009-03-26 08:27:29 51°16.911 2°51.145 323.6 0.6 258 9.6
2009-03-26 08:27:34 51°16.911 2°51.144 322.4 0.6 250 9.7
2009-03-26 08:27:38 51°16.911 2°51.143 321.4 0.5 244 9.6
2009-03-26 08:27:43 51°16.911 2°51.142 320.2 0.5 241 9.7
2009-03-26 08:27:49 51°16.91 2°51.141 319.2 0.5 239 9.6
2009-03-26 08:27:54 51°16.91 2°51.14 318.5 0.6 239 9.7
2009-03-26 08:27:58 51°16.909 2°51.139 317.2 0.6 232 9.7
2009-03-26 08:28:03 51°16.909 2°51.138 316.5 0.4 226 9.7
2009-03-26 08:28:09 51°16.908 2°51.137 315.1 0.5 222 9.7
2009-03-26 08:28:14 51°16.908 2°51.136 313.6 0.6 223 9.8
2009-03-26 08:28:18 51°16.908 2°51.136 312.4 0.4 219 9.7
2009-03-26 08:28:23 51°16.907 2°51.135 311.4 0.5 218 9.8
2009-03-26 08:28:28 51°16.907 2°51.135 310.4 0.4 208 9.7
2009-03-26 08:28:34 51°16.906 2°51.135 310.4 0.4 195 9.7
2009-03-26 08:28:38 51°16.905 2°51.134 310.1 0.5 203 9.7
2009-03-26 08:28:43 51°16.905 2°51.134 310.4 0.5 200 9.8
2009-03-26 08:28:49 51°16.904 2°51.134 310.1 0.4 195 9.8
2009-03-26 08:28:53 51°16.903 2°51.134 310 0.6 196 9.8
2009-03-26 08:28:59 51°16.903 2°51.133 310.3 0.5 182 9.8
2009-03-26 08:29:03 51°16.902 2°51.133 310.5 0.6 187 9.8
2009-03-26 08:29:09 51°16.901 2°51.133 310.6 0.5 176 9.8
2009-03-26 08:29:14 51°16.9 2°51.133 310.7 0.6 181 9.8
2009-03-26 08:29:18 51°16.9 2°51.133 310.7 0.6 173 9.7
2009-03-26 08:29:23 51°16.899 2°51.133 311 0.6 168 9.8
2009-03-26 08:29:29 51°16.898 2°51.133 311.6 0.6 170 9.8
2009-03-26 08:29:34 51°16.897 2°51.134 311.8 0.6 176 9.8
2009-03-26 08:29:38 51°16.897 2°51.134 312.5 0.5 162 9.9
2009-03-26 08:29:43 51°16.896 2°51.134 312.9 0.6 174 9.8
2009-03-26 08:29:49 51°16.895 2°51.135 313.6 0.6 161 9.8
2009-03-26 08:29:54 51°16.894 2°51.135 314.3 0.6 164 9.8
2009-03-26 08:29:58 51°16.893 2°51.135 315.2 0.6 161 9.9
2009-03-26 08:30:03 51°16.892 2°51.136 315.9 0.6 159 9.9
2009-03-26 08:30:09 51°16.891 2°51.136 317.5 0.7 159 9.8
2009-03-26 08:30:14 51°16.89 2°51.137 318.1 0.7 158 9.9
2009-03-26 08:30:18 51°16.89 2°51.137 319.4 0.8 164 9.9
2009-03-26 08:30:23 51°16.889 2°51.138 320.5 0.8 167 9.9
2009-03-26 08:30:29 51°16.887 2°51.138 321.5 0.7 158 9.9
2009-03-26 08:30:34 51°16.886 2°51.139 322.3 0.8 165 9.9
2009-03-26 08:30:38 51°16.886 2°51.139 323.3 0.8 163 9.9
2009-03-26 08:30:43 51°16.884 2°51.14 324.2 0.9 163 9.9
2009-03-26 08:30:49 51°16.883 2°51.141 325.2 0.9 162 9.9
2009-03-26 08:30:54 51°16.882 2°51.141 326.2 0.9 155 9.9
2009-03-26 08:30:59 51°16.881 2°51.141 327.4 0.9 171 9.8
2009-03-26 08:31:03 51°16.88 2°51.142 327.9 0.8 160 9.9
2009-03-26 08:31:08 51°16.879 2°51.143 329.3 0.9 168 9.9
2009-03-26 08:31:14 51°16.878 2°51.144 330.2 0.9 158 9.9
2009-03-26 08:31:18 51°16.877 2°51.144 331.4 0.9 164 9.9
2009-03-26 08:31:23 51°16.875 2°51.145 332 0.9 159 10
2009-03-26 08:31:29 51°16.874 2°51.146 333.3 0.9 161 10
2009-03-26 08:31:34 51°16.873 2°51.146 334.3 0.9 160 10.1
2009-03-26 08:31:38 51°16.872 2°51.147 335.4 0.9 159 10.1
2009-03-26 08:31:44 51°16.87 2°51.147 336.4 0.9 169 10
2009-03-26 08:31:49 51°16.869 2°51.147 337.8 0.9 162 10.1
2009-03-26 08:31:54 51°16.867 2°51.148 338.6 0.9 169 10.1
2009-03-26 08:31:58 51°16.866 2°51.148 339.4 0.9 161 10.1
2009-03-26 08:32:03 51°16.865 2°51.149 340.2 0.9 166 10
2009-03-26 08:32:09 51°16.863 2°51.149 341 1 167 10
2009-03-26 08:32:14 51°16.862 2°51.15 341.9 1 166 10.1
2009-03-26 08:32:18 51°16.861 2°51.15 342.7 1 166 10.1
2009-03-26 08:32:23 51°16.86 2°51.151 343.4 1 166 10.2
2009-03-26 08:32:29 51°16.858 2°51.151 344 1 167 10.1
2009-03-26 08:32:34 51°16.857 2°51.152 344.4 1 169 10.2
2009-03-26 08:32:38 51°16.856 2°51.152 345.1 0.9 165 10.1
2009-03-26 08:32:43 51°16.854 2°51.152 345.6 0.9 166 10.2
2009-03-26 08:32:48 51°16.853 2°51.153 346.2 1 164 10.2
2009-03-26 08:32:54 51°16.851 2°51.154 346.9 1 162 10.2
2009-03-26 08:32:58 51°16.85 2°51.154 347.5 1 163 10.1
2009-03-26 08:33:03 51°16.849 2°51.155 348.3 0.9 163 10.1
2009-03-26 08:33:09 51°16.847 2°51.155 349 0.9 167 10.2
2009-03-26 08:33:14 51°16.846 2°51.156 349.5 0.9 165 10.3
2009-03-26 08:33:19 51°16.845 2°51.156 349.9 0.9 169 10.3
2009-03-26 08:33:23 51°16.844 2°51.156 350.1 1 161 10.3
2009-03-26 08:33:29 51°16.842 2°51.157 350.4 1 171 10.3
2009-03-26 08:33:34 51°16.841 2°51.157 350.6 0.9 165 10.3
2009-03-26 08:33:38 51°16.84 2°51.158 351.2 1 163 10.3
2009-03-26 08:33:43 51°16.839 2°51.158 351.3 1 170 10.3
2009-03-26 08:33:49 51°16.837 2°51.159 351.6 1.1 160 10.3
2009-03-26 08:33:53 51°16.836 2°51.16 352.2 0.9 174 10.2
2009-03-26 08:33:58 51°16.835 2°51.16 352.2 0.9 164 10.3
2009-03-26 08:34:03 51°16.834 2°51.161 352.5 0.9 175 10.3
2009-03-26 08:34:09 51°16.832 2°51.161 352.5 0.9 165 10.4
2009-03-26 08:34:14 51°16.831 2°51.162 352.5 0.9 167 10.4
2009-03-26 08:34:18 51°16.83 2°51.162 352.4 0.9 172 10.4
2009-03-26 08:34:23 51°16.829 2°51.162 352.3 0.9 165 10.3
2009-03-26 08:34:29 51°16.827 2°51.163 352.1 0.9 165 10.4
2009-03-26 08:34:34 51°16.826 2°51.163 351.6 0.9 165 10.4
2009-03-26 08:34:38 51°16.825 2°51.164 351.3 0.9 167 10.4
2009-03-26 08:34:43 51°16.824 2°51.164 351.2 0.9 164 10.4
2009-03-26 08:34:49 51°16.822 2°51.165 351.2 0.9 167 10.4
2009-03-26 08:34:54 51°16.821 2°51.165 351.2 0.9 168 10.3
2009-03-26 08:34:58 51°16.82 2°51.165 351.2 0.9 166 10.4
2009-03-26 08:35:03 51°16.819 2°51.166 350.9 0.9 169 10.4
2009-03-26 08:35:09 51°16.818 2°51.167 350.7 0.9 163 10.4
2009-03-26 08:35:14 51°16.817 2°51.167 350.4 0.8 169 10.5
2009-03-26 08:35:18 51°16.816 2°51.167 350.2 0.8 167 10.5
2009-03-26 08:35:23 51°16.814 2°51.168 350.1 0.9 168 10.4
2009-03-26 08:35:29 51°16.813 2°51.168 349.9 0.9 171 10.4
2009-03-26 08:35:33 51°16.812 2°51.169 349.6 0.8 162 10.4
2009-03-26 08:35:38 51°16.811 2°51.169 349.2 0.9 173 10.4
2009-03-26 08:35:43 51°16.81 2°51.17 348.8 0.7 161 10.4
2009-03-26 08:35:49 51°16.809 2°51.17 348.2 0.6 165 10.3
2009-03-26 08:35:53 51°16.809 2°51.17 348 0.5 168 10.4
2009-03-26 08:35:58 51°16.808 2°51.17 348.3 0.4 185 10.5
2009-03-26 08:36:03 51°16.808 2°51.171 348.5 0.3 160 10.4
2009-03-26 08:36:09 51°16.807 2°51.171 349.1 0.2 180 10.5
2009-03-26 08:36:14 51°16.807 2°51.171 349.5 0.1 144 10.5
2009-03-26 08:36:18 51°16.807 2°51.171 350 -999 196 10.5
2009-03-26 08:36:23 51°16.807 2°51.171 350.7 0.1 343 10.4
2009-03-26 08:36:29 51°16.808 2°51.17 351.4 0.2 333 10.4
2009-03-26 08:36:34 51°16.808 2°51.17 351.6 0.2 350 10.4
2009-03-26 08:36:38 51°16.808 2°51.17 352 0.3 326 10.4
2009-03-26 08:36:43 51°16.808 2°51.17 352.3 0.4 351 10.4
2009-03-26 08:36:49 51°16.809 2°51.169 352.8 0.5 336 10.4
2009-03-26 08:36:54 51°16.81 2°51.168 353.1 0.5 335 10.4
2009-03-26 08:36:58 51°16.81 2°51.168 353.6 0.6 325 10.4
2009-03-26 08:37:03 51°16.811 2°51.167 353.9 0.6 339 10.4
2009-03-26 08:37:09 51°16.812 2°51.167 354.5 0.7 346 10.4
2009-03-26 08:37:14 51°16.813 2°51.166 355 0.9 342 10.4
2009-03-26 08:37:18 51°16.815 2°51.166 356 1.3 346 10.4
2009-03-26 08:37:23 51°16.817 2°51.165 358.3 1.5 356 10.4
2009-03-26 08:37:29 51°16.819 2°51.165 1.5 1.7 358 10.4
2009-03-26 08:37:34 51°16.822 2°51.166 5.6 1.9 4 10.4
2009-03-26 08:37:38 51°16.824 2°51.166 10.4 2.1 13 10.4
2009-03-26 08:37:43 51°16.827 2°51.168 15.3 2.2 16 10.4
2009-03-26 08:37:49 51°16.831 2°51.17 20.6 2.3 24 10.4
2009-03-26 08:37:53 51°16.833 2°51.172 26.7 2.4 34 10.3
2009-03-26 08:37:59 51°16.836 2°51.176 32.7 2.5 40 10.3
2009-03-26 08:38:03 51°16.838 2°51.18 38.6 2.6 49 10.3
2009-03-26 08:38:08 51°16.84 2°51.185 45.2 2.6 58 10.2
2009-03-26 08:38:14 51°16.842 2°51.191 52 2.6 65 10.1
2009-03-26 08:38:18 51°16.843 2°51.196 58.3 2.7 73 10.1
2009-03-26 08:38:23 51°16.844 2°51.201 64.7 2.7 79 10
2009-03-26 08:38:29 51°16.844 2°51.209 70.8 2.8 86 10
2009-03-26 08:38:34 51°16.844 2°51.215 76.4 2.8 97 9.9
2009-03-26 08:38:38 51°16.843 2°51.22 82.1 2.8 101 9.9
2009-03-26 08:38:44 51°16.842 2°51.227 87.9 2.8 108 9.8
2009-03-26 08:38:49 51°16.84 2°51.232 93 2.7 113 9.8
2009-03-26 08:38:54 51°16.839 2°51.238 98.1 2.7 118 9.8
2009-03-26 08:38:58 51°16.837 2°51.242 102.8 2.7 121 9.8
2009-03-26 08:39:03 51°16.835 2°51.246 107.1 2.8 127 9.8
2009-03-26 08:39:09 51°16.832 2°51.252 111.5 2.7 130 9.7
2009-03-26 08:39:14 51°16.829 2°51.257 115.8 2.7 133 9.8
2009-03-26 08:39:18 51°16.827 2°51.26 119.7 2.7 137 9.7
2009-03-26 08:39:23 51°16.824 2°51.264 122.7 2.7 139 9.7
2009-03-26 08:39:29 51°16.821 2°51.269 124.9 2.8 140 9.7
2009-03-26 08:39:34 51°16.818 2°51.273 126.6 2.9 141 9.7
2009-03-26 08:39:38 51°16.815 2°51.276 128.4 2.9 142 9.8
2009-03-26 08:39:43 51°16.812 2°51.28 129.5 3 143 9.7
2009-03-26 08:39:49 51°16.808 2°51.285 130.6 3 145 9.7
2009-03-26 08:39:54 51°16.804 2°51.288 131.6 3 144 9.8
2009-03-26 08:39:58 51°16.801 2°51.291 133 3.1 147 9.8
2009-03-26 08:40:03 51°16.798 2°51.295 134 3.1 147 9.9
2009-03-26 08:40:09 51°16.793 2°51.3 135.8 3.1 147 9.9
2009-03-26 08:40:13 51°16.79 2°51.302 136.7 3.2 150 9.9
2009-03-26 08:40:18 51°16.786 2°51.306 137.9 3.2 148 9.9
2009-03-26 08:40:23 51°16.783 2°51.31 138.7 3.2 152 10
2009-03-26 08:40:29 51°16.778 2°51.314 139.6 3.2 149 10
2009-03-26 08:40:34 51°16.774 2°51.317 140.4 3.3 151 10.1
2009-03-26 08:40:38 51°16.771 2°51.32 140.9 3.2 151 10.1
2009-03-26 08:40:43 51°16.767 2°51.324 141.7 3.3 152 10.2
2009-03-26 08:40:49 51°16.762 2°51.328 142.4 3.3 152 10.2
2009-03-26 08:40:54 51°16.758 2°51.331 143.3 3.3 154 10.3
2009-03-26 08:40:58 51°16.755 2°51.333 144.2 3.3 153 10.2
2009-03-26 08:41:03 51°16.75 2°51.336 145.1 3.2 156 10.3
2009-03-26 08:41:09 51°16.746 2°51.34 145.8 3.2 155 10.2
2009-03-26 08:41:14 51°16.741 2°51.343 146.7 3.3 155 10.2
2009-03-26 08:41:18 51°16.738 2°51.345 147.4 3.2 156 10.1
2009-03-26 08:41:23 51°16.734 2°51.348 147.8 3.1 157 10
2009-03-26 08:41:29 51°16.729 2°51.351 148.4 3.2 158 10
2009-03-26 08:41:34 51°16.725 2°51.354 149.6 3.2 158 10
2009-03-26 08:41:38 51°16.722 2°51.356 150.3 3.2 160 9.9
2009-03-26 08:41:43 51°16.718 2°51.358 151 3.2 159 9.9
2009-03-26 08:41:48 51°16.713 2°51.361 151.7 3.2 160 10
2009-03-26 08:41:54 51°16.709 2°51.363 152.4 3.1 160 9.9
2009-03-26 08:41:58 51°16.705 2°51.365 152.9 3.1 162 10
2009-03-26 08:42:03 51°16.701 2°51.368 153.3 3.1 161 10
2009-03-26 08:42:09 51°16.696 2°51.37 154.2 3.1 163 10.1
2009-03-26 08:42:13 51°16.693 2°51.372 154.9 3.1 162 10.1
2009-03-26 08:42:19 51°16.688 2°51.374 155.8 3.1 165 10.2
2009-03-26 08:42:23 51°16.685 2°51.375 156.2 3.1 164 10.3
2009-03-26 08:42:29 51°16.68 2°51.378 157 3.1 166 10.3
2009-03-26 08:42:34 51°16.676 2°51.38 157.9 3.2 164 10.4
2009-03-26 08:42:38 51°16.672 2°51.381 158.8 3.1 166 10.5
2009-03-26 08:42:43 51°16.668 2°51.383 159.5 3.1 164 10.4
2009-03-26 08:42:49 51°16.663 2°51.385 160 3.1 166 10.4
2009-03-26 08:42:53 51°16.66 2°51.386 160.5 3.1 166 10.5
2009-03-26 08:42:59 51°16.655 2°51.388 161.3 3.1 167 10.6
2009-03-26 08:43:03 51°16.651 2°51.39 161.7 3.1 166 10.7
2009-03-26 08:43:09 51°16.646 2°51.391 162.5 3.2 168 10.7
2009-03-26 08:43:14 51°16.642 2°51.393 162.9 3.2 169 10.7
2009-03-26 08:43:18 51°16.638 2°51.393 164.1 3.2 169 10.8
2009-03-26 08:43:24 51°16.633 2°51.395 164.1 3.2 168 10.8
2009-03-26 08:43:29 51°16.629 2°51.396 164.7 3.2 169 10.9
2009-03-26 08:43:34 51°16.624 2°51.398 165.1 3.2 169 10.8
2009-03-26 08:43:38 51°16.621 2°51.399 165.5 3.2 170 10.9
2009-03-26 08:43:43 51°16.616 2°51.4 165.8 3.2 170 10.9
2009-03-26 08:43:49 51°16.611 2°51.402 166.5 3.3 170 10.9
2009-03-26 08:43:54 51°16.607 2°51.403 167 3.3 170 10.9
2009-03-26 08:43:58 51°16.603 2°51.404 167.3 3.2 171 11
2009-03-26 08:44:03 51°16.599 2°51.405 167.7 3.3 170 11
2009-03-26 08:44:09 51°16.593 2°51.407 168.5 3.3 170 11
2009-03-26 08:44:14 51°16.589 2°51.408 168.6 3.3 172 11
2009-03-26 08:44:18 51°16.585 2°51.409 169 3.3 170 10.9
2009-03-26 08:44:23 51°16.581 2°51.41 169.3 3.3 173 11.1
2009-03-26 08:44:29 51°16.576 2°51.411 170 3.2 170 11.1
2009-03-26 08:44:33 51°16.572 2°51.412 170.5 3.2 172 11.1
2009-03-26 08:44:38 51°16.568 2°51.413 171.4 3.3 172 11.1
2009-03-26 08:44:43 51°16.563 2°51.414 172.2 3.3 175 11.2
2009-03-26 08:44:49 51°16.558 2°51.414 173.4 3.2 174 11.3
2009-03-26 08:44:53 51°16.554 2°51.415 174.5 3.2 176 11.3
2009-03-26 08:44:58 51°16.55 2°51.415 175.5 3.2 176 11.4
2009-03-26 08:45:03 51°16.545 2°51.416 177 3.2 176 11.3
2009-03-26 08:45:09 51°16.54 2°51.416 178 3.1 177 11.3
2009-03-26 08:45:14 51°16.536 2°51.416 179 3.1 179 11.3
2009-03-26 08:45:18 51°16.533 2°51.416 180.7 3.1 181 11.3
2009-03-26 08:45:23 51°16.528 2°51.416 182.2 3.2 182 11.4
2009-03-26 08:45:29 51°16.523 2°51.416 183.7 3.1 183 11.4
2009-03-26 08:45:34 51°16.519 2°51.416 185.2 3.1 184 11.5
2009-03-26 08:45:38 51°16.516 2°51.415 186.6 3 184 11.5
2009-03-26 08:45:43 51°16.512 2°51.414 188.5 3 185 11.5
2009-03-26 08:45:49 51°16.506 2°51.414 190.2 3 186 11.5
2009-03-26 08:45:54 51°16.502 2°51.413 191.7 3 189 11.4
2009-03-26 08:45:58 51°16.499 2°51.412 193.7 3 189 11.5
2009-03-26 08:46:03 51°16.495 2°51.41 195.4 3 191 11.3
2009-03-26 08:46:09 51°16.49 2°51.408 197.2 3 197 11.2
2009-03-26 08:46:14 51°16.486 2°51.407 199.4 3.1 193 10.8
2009-03-26 08:46:18 51°16.482 2°51.405 201.5 3.1 200 10.4
2009-03-26 08:46:23 51°16.478 2°51.402 203.2 3.1 198 9.7
2009-03-26 08:46:29 51°16.474 2°51.399 205.7 3.1 204 9.1
2009-03-26 08:46:34 51°16.47 2°51.397 206.8 3.1 203 8.5
2009-03-26 08:46:38 51°16.467 2°51.394 209.1 3.2 204 8.8
2009-03-26 08:46:43 51°16.462 2°51.391 209.5 3.2 206 9
2009-03-26 08:46:49 51°16.458 2°51.387 211.3 3.3 205 9.1
2009-03-26 08:46:53 51°16.454 2°51.385 212.5 3.2 208 9.2
2009-03-26 08:46:59 51°16.45 2°51.381 213.5 3.3 207 9.4
2009-03-26 08:47:03 51°16.446 2°51.378 214.4 3.3 212 9.4
2009-03-26 08:47:08 51°16.443 2°51.374 215.1 3.3 209 9.6
2009-03-26 08:47:14 51°16.438 2°51.37 215.3 3.3 212 9.7
2009-03-26 08:47:18 51°16.435 2°51.367 215.2 3.3 210 9.8
2009-03-26 08:47:23 51°16.431 2°51.364 214.8 3.3 211 9.9
2009-03-26 08:47:29 51°16.426 2°51.359 214.3 3.4 208 10.1
2009-03-26 08:47:34 51°16.422 2°51.356 213.3 3.4 210 10.2
2009-03-26 08:47:38 51°16.418 2°51.353 212.1 3.5 205 10.4
2009-03-26 08:47:44 51°16.413 2°51.349 209.8 3.5 209 10.5
2009-03-26 08:47:49 51°16.409 2°51.346 208.2 3.4 206 10.8
2009-03-26 08:47:54 51°16.405 2°51.343 207.3 3.4 204 10.9
2009-03-26 08:47:58 51°16.401 2°51.341 205.1 3.5 201 11.3
2009-03-26 08:48:03 51°16.397 2°51.338 203.9 3.4 201 11.5
2009-03-26 08:48:09 51°16.391 2°51.335 202.4 3.4 198 11.6
2009-03-26 08:48:14 51°16.387 2°51.333 201.7 3.4 197 11.7
2009-03-26 08:48:18 51°16.383 2°51.331 201.4 3.5 197 11.7
2009-03-26 08:48:23 51°16.378 2°51.329 201.2 3.5 199 11.8
2009-03-26 08:48:29 51°16.373 2°51.326 202 3.5 196 11.7
2009-03-26 08:48:34 51°16.368 2°51.323 202.4 3.4 201 11.7
2009-03-26 08:48:38 51°16.365 2°51.322 203 3.4 198 11.8
2009-03-26 08:48:43 51°16.361 2°51.319 204 3.4 202 11.8
2009-03-26 08:48:49 51°16.355 2°51.316 205 3.4 200 11.8
2009-03-26 08:48:54 51°16.351 2°51.313 206.2 3.4 203 11.7
2009-03-26 08:48:58 51°16.347 2°51.311 207.8 3.3 203 11.6
2009-03-26 08:49:03 51°16.343 2°51.308 209.4 3.3 203 11.5
2009-03-26 08:49:09 51°16.338 2°51.304 210.9 3.3 207 11.4
2009-03-26 08:49:14 51°16.334 2°51.301 212.5 3.3 206 11.4
2009-03-26 08:49:18 51°16.331 2°51.298 214.2 3.2 211 11.4
2009-03-26 08:49:23 51°16.327 2°51.295 215.5 3.2 210 11.4
2009-03-26 08:49:29 51°16.323 2°51.29 217.1 3.2 215 11.4
2009-03-26 08:49:34 51°16.319 2°51.286 218.7 3.2 214 11.3
2009-03-26 08:49:38 51°16.316 2°51.283 220.9 3.2 214 11.1
2009-03-26 08:49:43 51°16.312 2°51.279 223 3.3 217 10.9
2009-03-26 08:49:49 51°16.308 2°51.274 225 3.3 219 10.5
2009-03-26 08:49:54 51°16.305 2°51.269 227.2 3.2 220 10.1
2009-03-26 08:49:58 51°16.302 2°51.265 228.9 3.2 221 9.7
2009-03-26 08:50:03 51°16.299 2°51.26 231.7 3.2 223 9.5
2009-03-26 08:50:09 51°16.295 2°51.254 234.2 3.2 225 9.7
2009-03-26 08:50:14 51°16.292 2°51.249 236 3.2 226 9.7
2009-03-26 08:50:18 51°16.29 2°51.245 238.1 3.2 230 9.8
2009-03-26 08:50:24 51°16.286 2°51.238 239.8 3.2 229 10
2009-03-26 08:50:29 51°16.284 2°51.232 242.4 3.1 235 10.1
2009-03-26 08:50:34 51°16.281 2°51.226 244.7 3.2 235 10.2
2009-03-26 08:50:38 51°16.279 2°51.222 247.2 3.1 238 10.4
2009-03-26 08:50:43 51°16.277 2°51.216 249.2 3.1 238 10.4
2009-03-26 08:50:49 51°16.275 2°51.208 251.1 3.1 243 10.5
2009-03-26 08:50:54 51°16.273 2°51.202 251.9 3.1 243 10.6
2009-03-26 08:50:58 51°16.271 2°51.197 253.4 3.1 244 10.6
2009-03-26 08:51:03 51°16.269 2°51.191 254.1 3.1 246 10.6
2009-03-26 08:51:09 51°16.267 2°51.184 254.6 3 244 10.7
2009-03-26 08:51:14 51°16.266 2°51.177 255.2 3.1 246 10.7
2009-03-26 08:51:19 51°16.264 2°51.171 255.1 3.1 248 10.8
2009-03-26 08:51:23 51°16.262 2°51.166 255.2 3.1 245 10.8
2009-03-26 08:51:28 51°16.261 2°51.16 254.9 3.1 244 10.8
2009-03-26 08:51:34 51°16.259 2°51.152 254.3 3.1 245 10.8
2009-03-26 08:51:38 51°16.257 2°51.147 253.8 3.1 244 11
2009-03-26 08:51:43 51°16.256 2°51.141 252.9 3 245 10.9
2009-03-26 08:51:49 51°16.253 2°51.134 252 3.1 246 10.8
2009-03-26 08:51:54 51°16.251 2°51.128 251.4 3.1 244 10.9
2009-03-26 08:51:59 51°16.25 2°51.122 250.8 3.1 245 11
2009-03-26 08:52:04 51°16.248 2°51.116 250.4 3.1 244 11
2009-03-26 08:52:09 51°16.245 2°51.11 249.8 3.1 242 11
2009-03-26 08:52:14 51°16.243 2°51.104 248.6 3.1 243 11
2009-03-26 08:52:18 51°16.241 2°51.099 247.4 3.1 238 11
2009-03-26 08:52:23 51°16.239 2°51.093 246.4 3.1 239 11
2009-03-26 08:52:29 51°16.236 2°51.086 245.5 3.1 238 11
2009-03-26 08:52:34 51°16.234 2°51.08 244.5 3.2 238 11.1
2009-03-26 08:52:38 51°16.232 2°51.075 243 3.2 235 11.1
2009-03-26 08:52:42 51°16.23 2°51.071 242.2 3.2 234 11.1
2009-03-26 08:52:49 51°16.227 2°51.063 241.2 3.2 237 11.1
2009-03-26 08:52:54 51°16.224 2°51.058 240.3 3.2 230 11.2
2009-03-26 08:52:58 51°16.222 2°51.053 239.4 3.2 234 11.1
2009-03-26 08:53:03 51°16.218 2°51.048 237.9 3.2 231 11
2009-03-26 08:53:09 51°16.215 2°51.041 236.8 3.2 232 11
2009-03-26 08:53:14 51°16.212 2°51.036 235.8 3.2 230 11
2009-03-26 08:53:19 51°16.209 2°51.03 235.2 3.3 228 11
2009-03-26 08:53:23 51°16.207 2°51.026 234.5 3.3 230 11
2009-03-26 08:53:29 51°16.203 2°51.019 233.6 3.4 225 11.1
2009-03-26 08:53:34 51°16.2 2°51.014 232.8 3.3 227 11
2009-03-26 08:53:38 51°16.197 2°51.01 231.8 3.3 225 10.9
2009-03-26 08:53:43 51°16.194 2°51.005 231.5 3.2 224 10.9
2009-03-26 08:53:49 51°16.191 2°50.999 230.2 3.2 225 10.9
2009-03-26 08:53:53 51°16.188 2°50.995 230.2 3.2 222 11
2009-03-26 08:53:59 51°16.184 2°50.989 229.6 3.2 224 11.1
2009-03-26 08:54:04 51°16.181 2°50.984 229.6 3.2 223 11.1
2009-03-26 08:54:09 51°16.177 2°50.979 229.5 3.2 224 11.1
2009-03-26 08:54:14 51°16.174 2°50.974 229.7 3.2 223 10.9
2009-03-26 08:54:18 51°16.172 2°50.97 229.9 3.2 225 11
2009-03-26 08:54:23 51°16.168 2°50.965 230.3 3.2 222 10.8
2009-03-26 08:54:29 51°16.165 2°50.959 230.5 3.1 226 10.7
2009-03-26 08:54:34 51°16.161 2°50.955 230.9 3.2 222 10.7
2009-03-26 08:54:38 51°16.159 2°50.951 231.6 3.2 222 10.7
2009-03-26 08:54:44 51°16.155 2°50.945 231.9 3.2 225 10.8
2009-03-26 08:54:49 51°16.152 2°50.94 233.1 3.2 223 10.8
2009-03-26 08:54:54 51°16.149 2°50.935 234 3.1 230 10.7
2009-03-26 08:54:58 51°16.146 2°50.931 234.7 3.1 226 10.8
2009-03-26 08:55:03 51°16.144 2°50.926 235.5 3.1 228 10.8
2009-03-26 08:55:09 51°16.14 2°50.92 236.1 3.1 228 10.9
2009-03-26 08:55:14 51°16.137 2°50.915 236.8 3.1 231 10.9
2009-03-26 08:55:18 51°16.135 2°50.911 237.8 3 228 10.9
2009-03-26 08:55:23 51°16.132 2°50.906 238.2 2.9 228 10.9
2009-03-26 08:55:29 51°16.129 2°50.9 238.2 3 231 10.9
2009-03-26 08:55:34 51°16.126 2°50.895 238.7 3 230 10.9
2009-03-26 08:55:39 51°16.124 2°50.89 239.3 3 230 11
2009-03-26 08:55:43 51°16.121 2°50.886 240 3 232 10.9
2009-03-26 08:55:48 51°16.119 2°50.88 240.8 3 231 11.1
2009-03-26 08:55:54 51°16.116 2°50.874 241.2 3.1 233 11.1
2009-03-26 08:55:58 51°16.114 2°50.869 241.8 3 234 11.1
2009-03-26 08:56:03 51°16.111 2°50.864 242.4 3.1 236 11.1
2009-03-26 08:56:09 51°16.109 2°50.857 243.5 3.1 232 11.1
2009-03-26 08:56:14 51°16.107 2°50.851 244.6 3 239 11.2
2009-03-26 08:56:19 51°16.104 2°50.846 245.5 3.1 232 11.2
2009-03-26 08:56:24 51°16.102 2°50.84 245.9 3 239 11.1
2009-03-26 08:56:28 51°16.1 2°50.836 246.4 3 241 11.1
2009-03-26 08:56:34 51°16.097 2°50.829 247.4 3.1 238 11.2
2009-03-26 08:56:38 51°16.096 2°50.824 248.6 3.1 242 11.2